sensor_id;sensor_type;location;lat;lon;timestamp;pressure;altitude;pressure_sealevel;temperature;humidity
9822;BME280;4950;46.042;14.472;2024-03-29T00:00:56;97243.25;;;12.30;78.86
9822;BME280;4950;46.042;14.472;2024-03-29T00:03:22;97246.66;;;12.31;78.69
9822;BME280;4950;46.042;14.472;2024-03-29T00:05:48;97248.06;;;12.33;78.89
9822;BME280;4950;46.042;14.472;2024-03-29T00:08:15;97250.88;;;12.38;78.66
9822;BME280;4950;46.042;14.472;2024-03-29T00:10:40;97258.28;;;12.41;78.47
9822;BME280;4950;46.042;14.472;2024-03-29T00:13:06;97259.28;;;12.40;78.42
9822;BME280;4950;46.042;14.472;2024-03-29T00:15:32;97259.47;;;12.39;78.45
9822;BME280;4950;46.042;14.472;2024-03-29T00:17:58;97259.06;;;12.42;78.33
9822;BME280;4950;46.042;14.472;2024-03-29T00:20:23;97266.09;;;12.35;78.63
9822;BME280;4950;46.042;14.472;2024-03-29T00:22:49;97269.28;;;12.30;78.80
9822;BME280;4950;46.042;14.472;2024-03-29T00:25:16;97262.66;;;12.14;78.83
9822;BME280;4950;46.042;14.472;2024-03-29T00:27:42;97280.09;;;12.07;79.12
9822;BME280;4950;46.042;14.472;2024-03-29T00:30:09;97276.88;;;11.98;79.39
9822;BME280;4950;46.042;14.472;2024-03-29T00:32:35;97276.81;;;11.85;80.04
9822;BME280;4950;46.042;14.472;2024-03-29T00:35:01;97276.81;;;11.78;80.88
9822;BME280;4950;46.042;14.472;2024-03-29T00:37:26;97284.41;;;11.80;80.81
9822;BME280;4950;46.042;14.472;2024-03-29T00:39:52;97279.59;;;11.70;80.15
9822;BME280;4950;46.042;14.472;2024-03-29T00:42:19;97274.38;;;11.70;80.67
9822;BME280;4950;46.042;14.472;2024-03-29T00:44:45;97267.38;;;11.64;80.76
9822;BME280;4950;46.042;14.472;2024-03-29T00:47:11;97267.75;;;11.61;80.80
9822;BME280;4950;46.042;14.472;2024-03-29T00:49:36;97270.53;;;11.59;80.75
9822;BME280;4950;46.042;14.472;2024-03-29T00:52:03;97271.56;;;11.58;80.60
9822;BME280;4950;46.042;14.472;2024-03-29T00:54:29;97266.53;;;11.57;81.23
9822;BME280;4950;46.042;14.472;2024-03-29T00:56:55;97270.72;;;11.58;80.74
9822;BME280;4950;46.042;14.472;2024-03-29T00:59:22;97268.13;;;11.58;80.57
9822;BME280;4950;46.042;14.472;2024-03-29T01:01:48;97275.94;;;11.58;80.47
9822;BME280;4950;46.042;14.472;2024-03-29T01:04:14;97270.53;;;11.59;80.39
9822;BME280;4950;46.042;14.472;2024-03-29T01:06:39;97279.91;;;11.54;81.18
9822;BME280;4950;46.042;14.472;2024-03-29T01:09:06;97280.75;;;11.54;80.66
9822;BME280;4950;46.042;14.472;2024-03-29T01:11:32;97287.53;;;11.55;80.09
9822;BME280;4950;46.042;14.472;2024-03-29T01:13:58;97299.53;;;11.56;80.05
9822;BME280;4950;46.042;14.472;2024-03-29T01:16:25;97297.94;;;11.55;80.80
9822;BME280;4950;46.042;14.472;2024-03-29T01:18:51;97297.50;;;11.52;80.89
9822;BME280;4950;46.042;14.472;2024-03-29T01:21:17;97301.13;;;11.51;81.21
9822;BME280;4950;46.042;14.472;2024-03-29T01:23:43;97294.72;;;11.46;81.22
9822;BME280;4950;46.042;14.472;2024-03-29T01:26:08;97302.28;;;11.48;81.32
9822;BME280;4950;46.042;14.472;2024-03-29T01:28:34;97291.13;;;11.54;81.33
9822;BME280;4950;46.042;14.472;2024-03-29T01:31:00;97297.94;;;11.55;80.88
9822;BME280;4950;46.042;14.472;2024-03-29T01:33:27;97291.94;;;11.55;81.04
9822;BME280;4950;46.042;14.472;2024-03-29T01:35:53;97287.09;;;11.52;80.90
9822;BME280;4950;46.042;14.472;2024-03-29T01:38:19;97296.28;;;11.48;80.90
9822;BME280;4950;46.042;14.472;2024-03-29T01:40:45;97292.28;;;11.45;80.89
9822;BME280;4950;46.042;14.472;2024-03-29T01:43:11;97293.09;;;11.45;80.34
9822;BME280;4950;46.042;14.472;2024-03-29T01:45:38;97294.50;;;11.48;80.57
9822;BME280;4950;46.042;14.472;2024-03-29T01:48:05;97293.53;;;11.56;80.27
9822;BME280;4950;46.042;14.472;2024-03-29T01:50:34;97293.53;;;11.56;80.28
9822;BME280;4950;46.042;14.472;2024-03-29T01:53:02;97289.72;;;11.52;80.50
9822;BME280;4950;46.042;14.472;2024-03-29T01:55:28;97288.31;;;11.49;80.12
9822;BME280;4950;46.042;14.472;2024-03-29T01:57:56;97285.91;;;11.48;80.29
9822;BME280;4950;46.042;14.472;2024-03-29T02:00:24;97280.69;;;11.41;80.62
9822;BME280;4950;46.042;14.472;2024-03-29T02:02:53;97283.91;;;11.43;80.42
9822;BME280;4950;46.042;14.472;2024-03-29T02:05:20;97280.69;;;11.48;80.15
9822;BME280;4950;46.042;14.472;2024-03-29T02:07:48;97281.72;;;11.46;80.86
9822;BME280;4950;46.042;14.472;2024-03-29T02:10:15;97277.50;;;11.45;80.59
9822;BME280;4950;46.042;14.472;2024-03-29T02:12:42;97285.53;;;11.51;80.60
9822;BME280;4950;46.042;14.472;2024-03-29T02:15:14;97299.53;;;11.56;80.33
9822;BME280;4950;46.042;14.472;2024-03-29T02:17:41;97306.88;;;11.46;80.27
9822;BME280;4950;46.042;14.472;2024-03-29T02:20:09;97306.88;;;11.39;80.62
9822;BME280;4950;46.042;14.472;2024-03-29T02:22:39;97305.84;;;11.34;81.01
9822;BME280;4950;46.042;14.472;2024-03-29T02:25:09;97310.06;;;11.35;81.17
9822;BME280;4950;46.042;14.472;2024-03-29T02:27:36;97314.41;;;11.27;81.30
9822;BME280;4950;46.042;14.472;2024-03-29T02:30:03;97308.59;;;11.25;81.50
9822;BME280;4950;46.042;14.472;2024-03-29T02:32:30;97315.25;;;11.35;81.33
9822;BME280;4950;46.042;14.472;2024-03-29T02:34:57;97332.44;;;11.36;81.37
9822;BME280;4950;46.042;14.472;2024-03-29T02:37:23;97335.03;;;11.36;81.08
9822;BME280;4950;46.042;14.472;2024-03-29T02:39:50;97339.44;;;11.42;80.85
9822;BME280;4950;46.042;14.472;2024-03-29T02:42:18;97350.28;;;11.45;80.75
9822;BME280;4950;46.042;14.472;2024-03-29T02:44:46;97350.31;;;11.52;80.61
9822;BME280;4950;46.042;14.472;2024-03-29T02:47:13;97347.44;;;11.40;79.97
9822;BME280;4950;46.042;14.472;2024-03-29T02:49:38;97352.44;;;11.07;81.53
9822;BME280;4950;46.042;14.472;2024-03-29T02:52:05;97356.38;;;10.96;82.29
9822;BME280;4950;46.042;14.472;2024-03-29T02:54:31;97348.84;;;11.01;83.24
9822;BME280;4950;46.042;14.472;2024-03-29T02:56:58;97357.63;;;11.00;82.34
9822;BME280;4950;46.042;14.472;2024-03-29T02:59:25;97351.47;;;11.08;82.63
9822;BME280;4950;46.042;14.472;2024-03-29T03:01:52;97353.03;;;11.02;82.68
9822;BME280;4950;46.042;14.472;2024-03-29T03:04:17;97361.06;;;11.07;83.11
9822;BME280;4950;46.042;14.472;2024-03-29T03:06:44;97363.06;;;11.12;82.58
9822;BME280;4950;46.042;14.472;2024-03-29T03:09:10;97365.69;;;11.12;82.46
9822;BME280;4950;46.042;14.472;2024-03-29T03:11:53;97372.28;;;10.86;83.89
9822;BME280;4950;46.042;14.472;2024-03-29T03:14:20;97376.31;;;10.89;83.79
9822;BME280;4950;46.042;14.472;2024-03-29T03:16:48;97398.47;;;10.63;85.19
9822;BME280;4950;46.042;14.472;2024-03-29T03:19:14;97394.06;;;10.64;85.57
9822;BME280;4950;46.042;14.472;2024-03-29T03:21:41;97389.88;;;10.63;85.34
9822;BME280;4950;46.042;14.472;2024-03-29T03:24:06;97385.59;;;10.77;84.99
9822;BME280;4950;46.042;14.472;2024-03-29T03:26:34;97398.88;;;10.89;84.99
9822;BME280;4950;46.042;14.472;2024-03-29T03:29:00;97399.06;;;10.87;85.04
9822;BME280;4950;46.042;14.472;2024-03-29T03:31:27;97399.06;;;10.87;84.65
9822;BME280;4950;46.042;14.472;2024-03-29T03:33:54;97405.88;;;10.88;84.71
9822;BME280;4950;46.042;14.472;2024-03-29T03:36:20;97417.69;;;10.69;85.42
9822;BME280;4950;46.042;14.472;2024-03-29T03:38:46;97411.25;;;10.86;84.75
9822;BME280;4950;46.042;14.472;2024-03-29T03:41:13;97417.84;;;10.89;84.52
9822;BME280;4950;46.042;14.472;2024-03-29T03:43:38;97412.03;;;10.87;84.96
9822;BME280;4950;46.042;14.472;2024-03-29T03:46:05;97408.91;;;10.92;84.51
9822;BME280;4950;46.042;14.472;2024-03-29T03:48:31;97409.75;;;10.99;84.17
9822;BME280;4950;46.042;14.472;2024-03-29T03:50:59;97410.78;;;11.04;84.35
9822;BME280;4950;46.042;14.472;2024-03-29T03:53:24;97413.13;;;10.99;84.27
9822;BME280;4950;46.042;14.472;2024-03-29T03:55:51;97406.59;;;11.03;84.08
9822;BME280;4950;46.042;14.472;2024-03-29T03:58:17;97413.78;;;11.01;84.32
9822;BME280;4950;46.042;14.472;2024-03-29T04:00:43;97420.81;;;11.07;83.87
9822;BME280;4950;46.042;14.472;2024-03-29T04:03:09;97414.75;;;11.00;84.26
9822;BME280;4950;46.042;14.472;2024-03-29T04:05:37;97416.88;;;10.90;85.26
9822;BME280;4950;46.042;14.472;2024-03-29T04:08:05;97418.03;;;10.87;84.85
9822;BME280;4950;46.042;14.472;2024-03-29T04:10:31;97421.19;;;10.83;85.25
9822;BME280;4950;46.042;14.472;2024-03-29T04:12:57;97419.22;;;10.85;85.24
9822;BME280;4950;46.042;14.472;2024-03-29T04:15:24;97420.84;;;10.86;85.24
9822;BME280;4950;46.042;14.472;2024-03-29T04:17:49;97427.19;;;10.83;85.54
9822;BME280;4950;46.042;14.472;2024-03-29T04:20:16;97424.53;;;10.77;85.55
9822;BME280;4950;46.042;14.472;2024-03-29T04:22:42;97418.75;;;10.75;85.81
9822;BME280;4950;46.042;14.472;2024-03-29T04:25:11;97427.88;;;10.71;85.73
9822;BME280;4950;46.042;14.472;2024-03-29T04:27:37;97425.03;;;10.65;85.82
9822;BME280;4950;46.042;14.472;2024-03-29T04:30:05;97445.97;;;10.64;85.91
9822;BME280;4950;46.042;14.472;2024-03-29T04:32:31;97427.59;;;10.59;86.11
9822;BME280;4950;46.042;14.472;2024-03-29T04:34:57;97436.16;;;10.59;85.88
9822;BME280;4950;46.042;14.472;2024-03-29T04:37:23;97442.72;;;10.55;85.80
9822;BME280;4950;46.042;14.472;2024-03-29T04:39:50;97452.22;;;10.48;86.48
9822;BME280;4950;46.042;14.472;2024-03-29T04:42:18;97462.25;;;10.51;86.17
9822;BME280;4950;46.042;14.472;2024-03-29T04:44:45;97449.47;;;10.35;86.02
9822;BME280;4950;46.042;14.472;2024-03-29T04:47:12;97463.06;;;10.37;87.19
9822;BME280;4950;46.042;14.472;2024-03-29T04:49:38;97466.22;;;10.32;87.01
9822;BME280;4950;46.042;14.472;2024-03-29T04:52:06;97468.66;;;10.34;87.51
9822;BME280;4950;46.042;14.472;2024-03-29T04:54:33;97479.09;;;10.40;87.03
9822;BME280;4950;46.042;14.472;2024-03-29T04:57:01;97486.69;;;10.27;87.84
9822;BME280;4950;46.042;14.472;2024-03-29T04:59:30;97484.22;;;10.34;87.83
9822;BME280;4950;46.042;14.472;2024-03-29T05:01:58;97496.38;;;10.33;87.71
9822;BME280;4950;46.042;14.472;2024-03-29T05:04:25;97494.81;;;10.39;87.68
9822;BME280;4950;46.042;14.472;2024-03-29T05:06:52;97490.19;;;10.34;88.50
9822;BME280;4950;46.042;14.472;2024-03-29T05:09:20;97490.09;;;10.27;89.17
9822;BME280;4950;46.042;14.472;2024-03-29T05:11:46;97500.47;;;10.27;88.99
9822;BME280;4950;46.042;14.472;2024-03-29T05:14:13;97496.88;;;10.28;89.19
9822;BME280;4950;46.042;14.472;2024-03-29T05:16:43;97497.97;;;10.34;89.00
9822;BME280;4950;46.042;14.472;2024-03-29T05:19:10;97501.19;;;10.36;88.84
9822;BME280;4950;46.042;14.472;2024-03-29T05:21:37;97505.22;;;10.39;89.05
9822;BME280;4950;46.042;14.472;2024-03-29T05:24:04;97503.88;;;10.43;88.92
9822;BME280;4950;46.042;14.472;2024-03-29T05:26:31;97514.16;;;10.51;88.97
9822;BME280;4950;46.042;14.472;2024-03-29T05:28:57;97515.38;;;10.55;88.60
9822;BME280;4950;46.042;14.472;2024-03-29T05:31:25;97509.81;;;10.58;89.11
9822;BME280;4950;46.042;14.472;2024-03-29T05:33:53;97515.44;;;10.62;89.54
9822;BME280;4950;46.042;14.472;2024-03-29T05:36:20;97516.69;;;10.66;89.12
9822;BME280;4950;46.042;14.472;2024-03-29T05:38:47;97522.09;;;10.64;89.08
9822;BME280;4950;46.042;14.472;2024-03-29T05:41:13;97525.03;;;10.61;89.11
9822;BME280;4950;46.042;14.472;2024-03-29T05:43:40;97521.38;;;10.56;89.17
9822;BME280;4950;46.042;14.472;2024-03-29T05:46:07;97524.16;;;10.54;89.33
9822;BME280;4950;46.042;14.472;2024-03-29T05:48:33;97529.00;;;10.57;89.54
9822;BME280;4950;46.042;14.472;2024-03-29T05:51:02;97532.38;;;10.58;89.45
9822;BME280;4950;46.042;14.472;2024-03-29T05:53:28;97528.88;;;10.65;90.67
9822;BME280;4950;46.042;14.472;2024-03-29T05:55:55;97532.97;;;10.75;90.59
9822;BME280;4950;46.042;14.472;2024-03-29T05:58:22;97532.59;;;10.78;90.69
9822;BME280;4950;46.042;14.472;2024-03-29T06:00:48;97545.03;;;10.82;90.74
9822;BME280;4950;46.042;14.472;2024-03-29T06:03:15;97551.66;;;10.85;90.32
9822;BME280;4950;46.042;14.472;2024-03-29T06:05:42;97543.69;;;10.86;90.41
9822;BME280;4950;46.042;14.472;2024-03-29T06:08:10;97547.69;;;10.89;90.76
9822;BME280;4950;46.042;14.472;2024-03-29T06:10:37;97551.53;;;10.93;90.79
9822;BME280;4950;46.042;14.472;2024-03-29T06:13:04;97550.16;;;10.97;90.68
9822;BME280;4950;46.042;14.472;2024-03-29T06:15:35;97549.53;;;10.95;90.99
9822;BME280;4950;46.042;14.472;2024-03-29T06:18:20;97551.44;;;11.01;90.69
9822;BME280;4950;46.042;14.472;2024-03-29T06:20:47;97558.41;;;11.01;89.86
9822;BME280;4950;46.042;14.472;2024-03-29T06:23:15;97553.38;;;10.99;89.30
9822;BME280;4950;46.042;14.472;2024-03-29T06:25:41;97549.81;;;11.00;88.94
9822;BME280;4950;46.042;14.472;2024-03-29T06:28:08;97557.03;;;11.05;89.27
9822;BME280;4950;46.042;14.472;2024-03-29T06:30:35;97554.44;;;11.05;89.03
9822;BME280;4950;46.042;14.472;2024-03-29T06:33:01;97556.09;;;11.13;88.60
9822;BME280;4950;46.042;14.472;2024-03-29T06:35:29;97551.53;;;11.15;88.67
9822;BME280;4950;46.042;14.472;2024-03-29T06:37:56;97561.56;;;11.18;89.10
9822;BME280;4950;46.042;14.472;2024-03-29T06:40:24;97561.44;;;11.26;89.76
9822;BME280;4950;46.042;14.472;2024-03-29T06:42:51;97565.88;;;11.32;90.16
9822;BME280;4950;46.042;14.472;2024-03-29T06:45:18;97557.09;;;11.33;89.95
9822;BME280;4950;46.042;14.472;2024-03-29T06:47:45;97551.28;;;11.31;89.78
9822;BME280;4950;46.042;14.472;2024-03-29T06:50:12;97562.50;;;11.32;89.07
9822;BME280;4950;46.042;14.472;2024-03-29T06:52:39;97568.03;;;11.29;88.29
9822;BME280;4950;46.042;14.472;2024-03-29T06:55:06;97563.25;;;11.25;87.64
9822;BME280;4950;46.042;14.472;2024-03-29T06:57:34;97561.88;;;11.30;87.00
9822;BME280;4950;46.042;14.472;2024-03-29T07:00:01;97572.13;;;11.38;87.17
9822;BME280;4950;46.042;14.472;2024-03-29T07:02:29;97566.41;;;11.42;86.63
9822;BME280;4950;46.042;14.472;2024-03-29T07:04:55;97573.22;;;11.50;86.27
9822;BME280;4950;46.042;14.472;2024-03-29T07:07:22;97571.69;;;11.56;86.06
9822;BME280;4950;46.042;14.472;2024-03-29T07:09:49;97576.75;;;11.64;85.92
9822;BME280;4950;46.042;14.472;2024-03-29T07:12:16;97562.00;;;11.71;85.91
9822;BME280;4950;46.042;14.472;2024-03-29T07:14:44;97566.22;;;11.72;85.99
9822;BME280;4950;46.042;14.472;2024-03-29T07:17:11;97566.66;;;11.76;85.73
9822;BME280;4950;46.042;14.472;2024-03-29T07:19:37;97574.06;;;11.79;85.38
9822;BME280;4950;46.042;14.472;2024-03-29T07:22:04;97569.53;;;11.88;85.32
9822;BME280;4950;46.042;14.472;2024-03-29T07:24:31;97573.22;;;12.00;85.94
9822;BME280;4950;46.042;14.472;2024-03-29T07:26:57;97571.66;;;12.05;86.77
9822;BME280;4950;46.042;14.472;2024-03-29T07:29:24;97575.13;;;12.13;86.71
9822;BME280;4950;46.042;14.472;2024-03-29T07:31:52;97564.56;;;12.21;86.61
9822;BME280;4950;46.042;14.472;2024-03-29T07:34:19;97562.56;;;12.23;86.73
9822;BME280;4950;46.042;14.472;2024-03-29T07:36:46;97561.19;;;12.27;86.72
9822;BME280;4950;46.042;14.472;2024-03-29T07:39:13;97557.78;;;12.33;86.39
9822;BME280;4950;46.042;14.472;2024-03-29T07:41:40;97557.22;;;12.38;86.29
9822;BME280;4950;46.042;14.472;2024-03-29T07:44:07;97560.84;;;12.43;85.96
9822;BME280;4950;46.042;14.472;2024-03-29T07:46:34;97563.50;;;12.50;85.75
9822;BME280;4950;46.042;14.472;2024-03-29T07:49:03;97566.50;;;12.54;84.98
9822;BME280;4950;46.042;14.472;2024-03-29T07:51:30;97561.31;;;12.60;84.63
9822;BME280;4950;46.042;14.472;2024-03-29T07:53:57;97561.94;;;12.62;84.64
9822;BME280;4950;46.042;14.472;2024-03-29T07:56:24;97551.53;;;12.69;84.74
9822;BME280;4950;46.042;14.472;2024-03-29T07:58:51;97555.75;;;12.77;84.64
9822;BME280;4950;46.042;14.472;2024-03-29T08:01:19;97562.59;;;12.78;84.26
9822;BME280;4950;46.042;14.472;2024-03-29T08:03:46;97562.78;;;12.76;83.65
9822;BME280;4950;46.042;14.472;2024-03-29T08:06:14;97561.00;;;12.83;83.69
9822;BME280;4950;46.042;14.472;2024-03-29T08:08:44;97571.44;;;12.90;83.25
9822;BME280;4950;46.042;14.472;2024-03-29T08:11:11;97567.22;;;12.96;82.63
9822;BME280;4950;46.042;14.472;2024-03-29T08:13:38;97564.84;;;13.01;82.29
9822;BME280;4950;46.042;14.472;2024-03-29T08:16:05;97561.84;;;13.04;81.45
9822;BME280;4950;46.042;14.472;2024-03-29T08:18:33;97558.84;;;13.07;81.15
9822;BME280;4950;46.042;14.472;2024-03-29T08:21:00;97558.84;;;13.14;81.06
9822;BME280;4950;46.042;14.472;2024-03-29T08:23:28;97559.06;;;13.19;81.07
9822;BME280;4950;46.042;14.472;2024-03-29T08:25:56;97562.28;;;13.21;79.32
9822;BME280;4950;46.042;14.472;2024-03-29T08:28:23;97568.09;;;13.23;79.21
9822;BME280;4950;46.042;14.472;2024-03-29T08:30:57;97575.94;;;13.30;79.92
9822;BME280;4950;46.042;14.472;2024-03-29T08:33:24;97569.94;;;13.36;79.82
9822;BME280;4950;46.042;14.472;2024-03-29T08:35:51;97581.59;;;13.40;80.23
9822;BME280;4950;46.042;14.472;2024-03-29T08:38:18;97572.56;;;13.42;79.73
9822;BME280;4950;46.042;14.472;2024-03-29T08:40:46;97574.78;;;13.46;79.08
9822;BME280;4950;46.042;14.472;2024-03-29T08:43:13;97575.56;;;13.46;79.14
9822;BME280;4950;46.042;14.472;2024-03-29T08:45:40;97574.97;;;13.44;79.35
9822;BME280;4950;46.042;14.472;2024-03-29T08:48:07;97567.94;;;13.51;79.11
9822;BME280;4950;46.042;14.472;2024-03-29T08:50:34;97561.94;;;13.57;79.54
9822;BME280;4950;46.042;14.472;2024-03-29T08:53:01;97563.94;;;13.62;79.60
9822;BME280;4950;46.042;14.472;2024-03-29T08:55:28;97564.13;;;13.67;79.69
9822;BME280;4950;46.042;14.472;2024-03-29T08:57:56;97562.31;;;13.68;79.83
9822;BME280;4950;46.042;14.472;2024-03-29T09:00:23;97559.13;;;13.66;80.37
9822;BME280;4950;46.042;14.472;2024-03-29T09:02:50;97564.13;;;13.67;80.57
9822;BME280;4950;46.042;14.472;2024-03-29T09:05:17;97568.53;;;13.73;80.63
9822;BME280;4950;46.042;14.472;2024-03-29T09:07:44;97558.50;;;13.77;80.76
9822;BME280;4950;46.042;14.472;2024-03-29T09:10:11;97558.09;;;13.80;80.71
9822;BME280;4950;46.042;14.472;2024-03-29T09:12:38;97556.06;;;13.82;80.76
9822;BME280;4950;46.042;14.472;2024-03-29T09:15:06;97560.31;;;13.83;80.85
9822;BME280;4950;46.042;14.472;2024-03-29T09:17:38;97551.47;;;13.84;80.59
9822;BME280;4950;46.042;14.472;2024-03-29T09:20:05;97561.69;;;13.86;81.10
9822;BME280;4950;46.042;14.472;2024-03-29T09:22:32;97563.13;;;13.81;81.41
9822;BME280;4950;46.042;14.472;2024-03-29T09:24:59;97558.50;;;13.83;82.06
9822;BME280;4950;46.042;14.472;2024-03-29T09:27:27;97551.47;;;13.84;81.30
9822;BME280;4950;46.042;14.472;2024-03-29T09:29:54;97556.28;;;13.80;80.98
9822;BME280;4950;46.042;14.472;2024-03-29T09:32:22;97555.91;;;13.77;80.83
9822;BME280;4950;46.042;14.472;2024-03-29T09:34:49;97558.09;;;13.80;80.50
9822;BME280;4950;46.042;14.472;2024-03-29T09:37:16;97555.88;;;13.83;80.19
9822;BME280;4950;46.042;14.472;2024-03-29T09:39:45;97559.09;;;13.86;80.37
9822;BME280;4950;46.042;14.472;2024-03-29T09:42:15;97553.06;;;13.85;80.67
9822;BME280;4950;46.042;14.472;2024-03-29T09:44:44;97561.50;;;13.87;80.41
9822;BME280;4950;46.042;14.472;2024-03-29T09:47:14;97564.31;;;13.86;80.47
9822;BME280;4950;46.042;14.472;2024-03-29T09:49:44;97558.91;;;13.87;80.34
9822;BME280;4950;46.042;14.472;2024-03-29T09:52:13;97555.84;;;13.90;79.62
9822;BME280;4950;46.042;14.472;2024-03-29T09:54:40;97567.13;;;13.84;79.65
9822;BME280;4950;46.042;14.472;2024-03-29T09:57:07;97564.94;;;13.81;80.04
9822;BME280;4950;46.042;14.472;2024-03-29T09:59:34;97549.44;;;13.86;79.48
9822;BME280;4950;46.042;14.472;2024-03-29T10:02:04;97559.50;;;13.89;79.28
9822;BME280;4950;46.042;14.472;2024-03-29T10:04:37;97544.22;;;13.86;80.40
9822;BME280;4950;46.042;14.472;2024-03-29T10:07:06;97552.84;;;13.93;80.66
9822;BME280;4950;46.042;14.472;2024-03-29T10:09:35;97545.84;;;13.87;80.67
9822;BME280;4950;46.042;14.472;2024-03-29T10:12:02;97546.66;;;13.94;80.67
9822;BME280;4950;46.042;14.472;2024-03-29T10:14:30;97541.19;;;13.96;80.46
9822;BME280;4950;46.042;14.472;2024-03-29T10:16:57;97539.19;;;14.05;80.42
9822;BME280;4950;46.042;14.472;2024-03-29T10:19:24;97533.53;;;14.08;80.39
9822;BME280;4950;46.042;14.472;2024-03-29T10:21:50;97534.97;;;14.10;80.40
9822;BME280;4950;46.042;14.472;2024-03-29T10:24:19;97533.34;;;14.16;80.29
9822;BME280;4950;46.042;14.472;2024-03-29T10:26:46;97531.31;;;14.18;80.59
9822;BME280;4950;46.042;14.472;2024-03-29T10:29:13;97515.44;;;14.19;80.98
9822;BME280;4950;46.042;14.472;2024-03-29T10:31:39;97534.53;;;14.20;81.13
9822;BME280;4950;46.042;14.472;2024-03-29T10:34:06;97528.88;;;14.23;81.01
9822;BME280;4950;46.042;14.472;2024-03-29T10:36:34;97523.47;;;14.25;80.86
9822;BME280;4950;46.042;14.472;2024-03-29T10:39:02;97516.22;;;14.27;80.89
9822;BME280;4950;46.042;14.472;2024-03-29T10:41:32;97515.22;;;14.28;81.23
9822;BME280;4950;46.042;14.472;2024-03-29T10:44:02;97520.63;;;14.33;80.95
9822;BME280;4950;46.042;14.472;2024-03-29T10:46:31;97513.22;;;14.30;81.09
9822;BME280;4950;46.042;14.472;2024-03-29T10:48:58;97513.22;;;14.30;81.02
9822;BME280;4950;46.042;14.472;2024-03-29T10:51:26;97513.63;;;14.27;81.94
9822;BME280;4950;46.042;14.472;2024-03-29T10:53:54;97509.63;;;14.24;82.49
9822;BME280;4950;46.042;14.472;2024-03-29T10:56:24;97508.56;;;14.32;82.41
9822;BME280;4950;46.042;14.472;2024-03-29T10:58:56;97519.41;;;14.35;82.49
9822;BME280;4950;46.042;14.472;2024-03-29T11:01:26;97516.41;;;14.32;82.38
9822;BME280;4950;46.042;14.472;2024-03-29T11:04:00;97519.81;;;14.32;82.86
9822;BME280;4950;46.042;14.472;2024-03-29T11:06:30;97518.19;;;14.31;82.58
9822;BME280;4950;46.042;14.472;2024-03-29T11:08:59;97521.84;;;14.23;83.30
9822;BME280;4950;46.042;14.472;2024-03-29T11:11:28;97526.66;;;14.27;83.43
9822;BME280;4950;46.042;14.472;2024-03-29T11:14:02;97520.63;;;14.33;82.56
9822;BME280;4950;46.042;14.472;2024-03-29T11:16:29;97522.84;;;14.29;82.28
9822;BME280;4950;46.042;14.472;2024-03-29T11:18:56;97526.22;;;14.36;82.80
9822;BME280;4950;46.042;14.472;2024-03-29T11:21:24;97516.38;;;14.45;83.41
9822;BME280;4950;46.042;14.472;2024-03-29T11:23:54;97518.72;;;14.60;84.39
9822;BME280;4950;46.042;14.472;2024-03-29T11:26:22;97514.53;;;14.91;83.16
9822;BME280;4950;46.042;14.472;2024-03-29T11:28:51;97502.75;;;15.07;82.50
9822;BME280;4950;46.042;14.472;2024-03-29T11:31:22;97499.31;;;15.38;82.46
9822;BME280;4950;46.042;14.472;2024-03-29T11:33:49;97504.22;;;15.78;80.60
9822;BME280;4950;46.042;14.472;2024-03-29T11:36:20;97506.97;;;16.20;76.59
9822;BME280;4950;46.042;14.472;2024-03-29T11:38:50;97496.25;;;16.40;76.20
9822;BME280;4950;46.042;14.472;2024-03-29T11:41:18;97487.22;;;16.54;75.86
9822;BME280;4950;46.042;14.472;2024-03-29T11:43:47;97478.94;;;16.69;75.32
9822;BME280;4950;46.042;14.472;2024-03-29T11:46:14;97487.94;;;16.92;72.78
9822;BME280;4950;46.042;14.472;2024-03-29T11:48:42;97483.84;;;17.08;72.31
9822;BME280;4950;46.042;14.472;2024-03-29T11:51:12;97495.59;;;17.05;71.59
9822;BME280;4950;46.042;14.472;2024-03-29T11:53:40;97491.00;;;17.01;72.90
9822;BME280;4950;46.042;14.472;2024-03-29T11:56:07;97491.34;;;16.92;71.98
9822;BME280;4950;46.042;14.472;2024-03-29T11:58:34;97495.88;;;16.85;72.11
9822;BME280;4950;46.042;14.472;2024-03-29T12:01:02;97504.59;;;16.79;72.17
9822;BME280;4950;46.042;14.472;2024-03-29T12:03:30;97491.59;;;16.72;72.88
9822;BME280;4950;46.042;14.472;2024-03-29T12:05:59;97492.84;;;16.70;72.06
9822;BME280;4950;46.042;14.472;2024-03-29T12:08:28;97482.59;;;16.68;72.58
9822;BME280;4950;46.042;14.472;2024-03-29T12:10:55;97480.97;;;16.67;72.70
9822;BME280;4950;46.042;14.472;2024-03-29T12:13:22;97492.28;;;16.68;71.85
9822;BME280;4950;46.042;14.472;2024-03-29T12:15:48;97472.53;;;16.65;72.21
9822;BME280;4950;46.042;14.472;2024-03-29T12:18:15;97472.53;;;16.65;71.85
9822;BME280;4950;46.042;14.472;2024-03-29T12:20:43;97477.00;;;16.65;72.22
9822;BME280;4950;46.042;14.472;2024-03-29T12:23:13;97473.94;;;16.68;72.66
9822;BME280;4950;46.042;14.472;2024-03-29T12:25:39;97487.47;;;16.65;71.86
9822;BME280;4950;46.042;14.472;2024-03-29T12:28:06;97474.59;;;16.63;72.19
9822;BME280;4950;46.042;14.472;2024-03-29T12:30:33;97471.75;;;16.65;71.90
9822;BME280;4950;46.042;14.472;2024-03-29T12:33:01;97471.75;;;16.65;71.60
9822;BME280;4950;46.042;14.472;2024-03-29T12:35:28;97471.88;;;16.70;71.47
9822;BME280;4950;46.042;14.472;2024-03-29T12:37:58;97465.97;;;16.74;71.98
9822;BME280;4950;46.042;14.472;2024-03-29T12:40:27;97458.69;;;16.76;71.54
9822;BME280;4950;46.042;14.472;2024-03-29T12:42:56;97458.59;;;16.83;71.05
9822;BME280;4950;46.042;14.472;2024-03-29T12:45:24;97470.00;;;16.89;71.69
9822;BME280;4950;46.042;14.472;2024-03-29T12:47:51;97473.78;;;16.93;70.89
9822;BME280;4950;46.042;14.472;2024-03-29T12:50:24;97472.56;;;17.07;70.24
9822;BME280;4950;46.042;14.472;2024-03-29T12:52:53;97477.84;;;17.19;69.85
9822;BME280;4950;46.042;14.472;2024-03-29T12:55:20;97460.13;;;17.26;69.59
9822;BME280;4950;46.042;14.472;2024-03-29T12:57:49;97479.69;;;17.30;68.66
9822;BME280;4950;46.042;14.472;2024-03-29T13:00:18;97475.66;;;17.40;69.24
9822;BME280;4950;46.042;14.472;2024-03-29T13:02:47;97458.34;;;17.50;68.54
9822;BME280;4950;46.042;14.472;2024-03-29T13:05:14;97467.22;;;17.61;67.28
9822;BME280;4950;46.042;14.472;2024-03-29T13:07:40;97466.19;;;17.62;67.09
9822;BME280;4950;46.042;14.472;2024-03-29T13:10:08;97469.28;;;17.59;67.14